PWSweather.com
Personal Weather Stations
Station Observations
CHKWX
Mesa Panagitsa, ChalkisGR 341 00

Mesa PanagitsaChalkisGR 341 00

Lat: 38.470143, Lon: 23.598348

Elevation: 30

Station Type: Oregon Scientific WMR100

www.chalkisweather.gr

High Low Average
Temperature 95.7°F35.4°F 74.7°F23.7°F 83.8°F28.8°F
Dew Point 72.5°F22.5°F 60.2°F15.7°F 66.0°F18.9°F
Winds 9.2 mph S14.8 mph S Calm Calm 1.9 mph 3.1 mph
Wind Gusts 15.0 mph24.1 mph -- 3.8 mph6.1 mph
Humidity 77% 34% 56%
Pressure 29.96 in1014.60 in 29.88 in1011.90 in -
Precipitation 0.00 in0.00 in - -
Hour Temp Dew Point Humidity Winds Wind Gusts Pressure Precip Precip Rate Daily Precip Total
12:00 AM 81.1°F27.3°C 63.4°F17.4°C 55% 1.2 mph SE1.9 kmh SE 4.6 mph7.4 kmh 29.94 in1013.9 mb - 0.00 in0.0 mm 0.00 in0.0 mm
12:10 AM 81.1°F27.3°C 62.3°F16.8°C 53% 2.3 mph SE3.7 kmh SE 2.3 mph3.7 kmh 29.94 in1013.9 mb - 0.00 in0.0 mm 0.00 in0.0 mm
12:20 AM 81.0°F27.2°C 65.8°F18.8°C 60% Calm Calm -- 29.94 in1013.9 mb - 0.00 in0.0 mm 0.00 in0.0 mm
12:30 AM 80.6°F27.0°C 65.4°F18.6°C 60% Calm Calm -- 29.94 in1013.9 mb - 0.00 in0.0 mm 0.00 in0.0 mm
12:40 AM 80.1°F26.7°C 63.0°F17.2°C 56% Calm Calm 2.3 mph3.7 kmh 29.94 in1013.9 mb - 0.00 in0.0 mm 0.00 in0.0 mm
12:50 AM 79.5°F26.4°C 65.8°F18.8°C 63% Calm Calm -- 29.94 in1013.9 mb - 0.00 in0.0 mm 0.00 in0.0 mm
01:00 AM 79.0°F26.1°C 64.9°F18.3°C 62% Calm Calm -- 29.94 in1013.9 mb - 0.00 in0.0 mm 0.00 in0.0 mm
01:10 AM 78.3°F25.7°C 68.1°F20.1°C 71% Calm Calm -- 29.94 in1013.9 mb - 0.00 in0.0 mm 0.00 in0.0 mm
01:20 AM 77.5°F25.3°C 66.9°F19.4°C 70% Calm Calm -- 29.93 in1013.5 mb - 0.00 in0.0 mm 0.00 in0.0 mm
01:30 AM 77.2°F25.1°C 65.8°F18.8°C 68% Calm Calm -- 29.93 in1013.5 mb - 0.00 in0.0 mm 0.00 in0.0 mm
01:40 AM 77.2°F25.1°C 65.0°F18.3°C 66% Calm Calm -- 29.93 in1013.5 mb - 0.00 in0.0 mm 0.00 in0.0 mm
01:50 AM 77.4°F25.2°C 64.7°F18.2°C 65% Calm Calm -- 29.93 in1013.5 mb - 0.00 in0.0 mm 0.00 in0.0 mm
02:00 AM 77.7°F25.4°C 65.9°F18.8°C 67% Calm Calm -- 29.93 in1013.5 mb - 0.00 in0.0 mm 0.00 in0.0 mm
02:10 AM 77.4°F25.2°C 67.7°F19.8°C 72% Calm Calm -- 29.93 in1013.5 mb - 0.00 in0.0 mm 0.00 in0.0 mm
02:20 AM 76.8°F24.9°C 67.9°F19.9°C 74% Calm Calm -- 29.93 in1013.5 mb - 0.00 in0.0 mm 0.00 in0.0 mm
02:30 AM 75.9°F24.4°C 66.6°F19.2°C 73% Calm Calm -- 29.93 in1013.5 mb - 0.00 in0.0 mm 0.00 in0.0 mm
02:40 AM 75.6°F24.2°C 66.3°F19.1°C 73% Calm Calm -- 29.93 in1013.5 mb - 0.00 in0.0 mm 0.00 in0.0 mm
02:50 AM 75.4°F24.1°C 66.1°F18.9°C 73% Calm Calm -- 29.93 in1013.5 mb - 0.00 in0.0 mm 0.00 in0.0 mm
03:00 AM 75.4°F24.1°C 66.1°F18.9°C 73% 1.2 mph N1.9 kmh N 2.3 mph3.7 kmh 29.94 in1013.9 mb - 0.00 in0.0 mm 0.00 in0.0 mm
03:10 AM 75.4°F24.1°C 65.7°F18.7°C 72% Calm Calm -- 29.94 in1013.9 mb - 0.00 in0.0 mm 0.00 in0.0 mm
03:20 AM 75.2°F24.0°C 65.6°F18.7°C 72% Calm Calm -- 29.93 in1013.5 mb - 0.00 in0.0 mm 0.00 in0.0 mm
03:30 AM 75.0°F23.9°C 65.4°F18.6°C 72% Calm Calm -- 29.93 in1013.5 mb - 0.00 in0.0 mm 0.00 in0.0 mm
03:40 AM 74.8°F23.8°C 65.6°F18.7°C 73% Calm Calm -- 29.93 in1013.5 mb - 0.00 in0.0 mm 0.00 in0.0 mm
03:50 AM 74.7°F23.7°C 65.1°F18.4°C 72% Calm Calm -- 29.93 in1013.5 mb - 0.00 in0.0 mm 0.00 in0.0 mm
04:00 AM 74.7°F23.7°C 64.7°F18.2°C 71% Calm Calm -- 29.93 in1013.5 mb - 0.00 in0.0 mm 0.00 in0.0 mm
04:10 AM 74.7°F23.7°C 65.5°F18.6°C 73% Calm Calm -- 29.93 in1013.5 mb - 0.00 in0.0 mm 0.00 in0.0 mm
04:20 AM 74.7°F23.7°C 64.7°F18.2°C 71% Calm Calm -- 29.93 in1013.5 mb - 0.00 in0.0 mm 0.00 in0.0 mm
04:30 AM 74.7°F23.7°C 65.1°F18.4°C 72% Calm Calm -- 29.93 in1013.5 mb - 0.00 in0.0 mm 0.00 in0.0 mm
04:40 AM 74.7°F23.7°C 65.5°F18.6°C 73% Calm Calm -- 29.93 in1013.5 mb - 0.00 in0.0 mm 0.00 in0.0 mm
04:50 AM 74.7°F23.7°C 65.5°F18.6°C 73% Calm Calm -- 29.93 in1013.5 mb - 0.00 in0.0 mm 0.00 in0.0 mm
05:00 AM 74.8°F23.8°C 66.0°F18.9°C 74% Calm Calm -- 29.93 in1013.5 mb - 0.00 in0.0 mm 0.00 in0.0 mm
05:10 AM 75.0°F23.9°C 66.5°F19.2°C 75% Calm Calm -- 29.93 in1013.5 mb - 0.00 in0.0 mm 0.00 in0.0 mm
05:20 AM 75.0°F23.9°C 66.9°F19.4°C 76% Calm Calm -- 29.94 in1013.9 mb - 0.00 in0.0 mm 0.00 in0.0 mm
05:30 AM 75.0°F23.9°C 67.3°F19.6°C 77% Calm Calm -- 29.94 in1013.9 mb - 0.00 in0.0 mm 0.00 in0.0 mm
05:40 AM 75.0°F23.9°C 64.5°F18.1°C 70% Calm Calm -- 29.94 in1013.9 mb - 0.00 in0.0 mm 0.00 in0.0 mm
05:50 AM 75.6°F24.2°C 63.5°F17.5°C 66% Calm Calm -- 29.94 in1013.9 mb - 0.00 in0.0 mm 0.00 in0.0 mm
06:00 AM 76.5°F24.7°C 63.0°F17.2°C 63% Calm Calm -- 29.94 in1013.9 mb - 0.00 in0.0 mm 0.00 in0.0 mm
06:10 AM 77.4°F25.2°C 64.3°F17.9°C 64% Calm Calm -- 29.94 in1013.9 mb - 0.00 in0.0 mm 0.00 in0.0 mm
06:20 AM 77.7°F25.4°C 65.0°F18.3°C 65% Calm Calm -- 29.94 in1013.9 mb - 0.00 in0.0 mm 0.00 in0.0 mm
06:30 AM 77.7°F25.4°C 66.3°F19.1°C 68% Calm Calm -- 29.95 in1014.2 mb - 0.00 in0.0 mm 0.00 in0.0 mm
06:40 AM 77.4°F25.2°C 68.1°F20.1°C 73% Calm Calm -- 29.95 in1014.2 mb - 0.00 in0.0 mm 0.00 in0.0 mm
06:50 AM 77.0°F25.0°C 67.7°F19.8°C 73% Calm Calm 2.3 mph3.7 kmh 29.95 in1014.2 mb - 0.00 in0.0 mm 0.00 in0.0 mm
07:00 AM 76.8°F24.9°C 67.1°F19.5°C 72% Calm Calm -- 29.95 in1014.2 mb - 0.00 in0.0 mm 0.00 in0.0 mm
07:10 AM 77.2°F25.1°C 67.1°F19.5°C 71% Calm Calm 2.3 mph3.7 kmh 29.95 in1014.2 mb - 0.00 in0.0 mm 0.00 in0.0 mm
07:20 AM 78.1°F25.6°C 65.4°F18.6°C 65% Calm Calm -- 29.96 in1014.6 mb - 0.00 in0.0 mm 0.00 in0.0 mm
07:30 AM 79.0°F26.1°C 66.7°F19.3°C 66% Calm Calm -- 29.95 in1014.2 mb - 0.00 in0.0 mm 0.00 in0.0 mm
07:40 AM 80.2°F26.8°C 66.5°F19.2°C 63% Calm Calm -- 29.96 in1014.6 mb - 0.00 in0.0 mm 0.00 in0.0 mm
07:50 AM 81.0°F27.2°C 67.2°F19.6°C 63% Calm Calm -- 29.96 in1014.6 mb - 0.00 in0.0 mm 0.00 in0.0 mm
08:00 AM 81.3°F27.4°C 66.1°F18.9°C 60% 2.3 mph N3.7 kmh N 4.6 mph7.4 kmh 29.96 in1014.6 mb - 0.00 in0.0 mm 0.00 in0.0 mm
08:10 AM 81.0°F27.2°C 64.8°F18.2°C 58% Calm Calm 2.3 mph3.7 kmh 29.96 in1014.6 mb - 0.00 in0.0 mm 0.00 in0.0 mm
08:20 AM 80.6°F27.0°C 65.4°F18.6°C 60% 1.2 mph NE1.9 kmh NE 4.6 mph7.4 kmh 29.96 in1014.6 mb - 0.00 in0.0 mm 0.00 in0.0 mm
08:30 AM 80.2°F26.8°C 65.1°F18.4°C 60% 3.5 mph N5.6 kmh N 4.6 mph7.4 kmh 29.96 in1014.6 mb - 0.00 in0.0 mm 0.00 in0.0 mm
08:40 AM 79.9°F26.6°C 65.2°F18.4°C 61% 3.5 mph NW5.6 kmh NW 4.6 mph7.4 kmh 29.96 in1014.6 mb - 0.00 in0.0 mm 0.00 in0.0 mm
08:50 AM 79.7°F26.5°C 65.1°F18.4°C 61% 2.3 mph N3.7 kmh N 4.6 mph7.4 kmh 29.96 in1014.6 mb - 0.00 in0.0 mm 0.00 in0.0 mm
09:00 AM 79.9°F26.6°C 65.7°F18.7°C 62% 3.5 mph NNE5.6 kmh NNE 4.6 mph7.4 kmh 29.96 in1014.6 mb - 0.00 in0.0 mm 0.00 in0.0 mm
09:10 AM 79.9°F26.6°C 66.6°F19.2°C 64% 2.3 mph N3.7 kmh N 4.6 mph7.4 kmh 29.96 in1014.6 mb - 0.00 in0.0 mm 0.00 in0.0 mm
09:20 AM 79.9°F26.6°C 66.6°F19.2°C 64% 2.3 mph N3.7 kmh N 4.6 mph7.4 kmh 29.96 in1014.6 mb - 0.00 in0.0 mm 0.00 in0.0 mm
09:30 AM 79.9°F26.6°C 67.5°F19.7°C 66% 3.5 mph N5.6 kmh N 4.6 mph7.4 kmh 29.96 in1014.6 mb - 0.00 in0.0 mm 0.00 in0.0 mm
09:40 AM 80.1°F26.7°C 67.3°F19.6°C 65% 2.3 mph N3.7 kmh N 4.6 mph7.4 kmh 29.96 in1014.6 mb - 0.00 in0.0 mm 0.00 in0.0 mm
09:50 AM 80.4°F26.9°C 68.0°F20.0°C 66% 1.2 mph N1.9 kmh N 4.6 mph7.4 kmh 29.96 in1014.6 mb - 0.00 in0.0 mm 0.00 in0.0 mm
10:00 AM 80.6°F27.0°C 69.5°F20.8°C 69% 1.2 mph NNE1.9 kmh NNE 4.6 mph7.4 kmh 29.96 in1014.6 mb - 0.00 in0.0 mm 0.00 in0.0 mm
10:10 AM 80.6°F27.0°C 69.1°F20.6°C 68% 3.5 mph NNE5.6 kmh NNE 4.6 mph7.4 kmh 29.96 in1014.6 mb - 0.00 in0.0 mm 0.00 in0.0 mm
10:20 AM 81.0°F27.2°C 68.1°F20.1°C 65% 2.3 mph N3.7 kmh N 8.1 mph13.0 kmh 29.96 in1014.6 mb - 0.00 in0.0 mm 0.00 in0.0 mm
10:30 AM 81.9°F27.7°C 64.7°F18.2°C 56% Calm Calm 2.3 mph3.7 kmh 29.96 in1014.6 mb - 0.00 in0.0 mm 0.00 in0.0 mm
10:40 AM 83.6°F28.7°C 65.2°F18.4°C 54% Calm Calm 4.6 mph7.4 kmh 29.95 in1014.2 mb - 0.00 in0.0 mm 0.00 in0.0 mm
10:50 AM 85.1°F29.5°C 64.4°F18.0°C 50% 3.5 mph N5.6 kmh N 4.6 mph7.4 kmh 29.95 in1014.2 mb - 0.00 in0.0 mm 0.00 in0.0 mm
11:00 AM 86.4°F30.2°C 65.6°F18.7°C 50% 2.3 mph NW3.7 kmh NW 4.6 mph7.4 kmh 29.95 in1014.2 mb - 0.00 in0.0 mm 0.00 in0.0 mm
11:10 AM 87.1°F30.6°C 65.0°F18.3°C 48% Calm Calm 2.3 mph3.7 kmh 29.95 in1014.2 mb - 0.00 in0.0 mm 0.00 in0.0 mm
11:20 AM 88.0°F31.1°C 67.6°F19.8°C 51% Calm Calm 2.3 mph3.7 kmh 29.96 in1014.6 mb - 0.00 in0.0 mm 0.00 in0.0 mm
11:30 AM 88.5°F31.4°C 69.2°F20.7°C 53% Calm Calm 2.3 mph3.7 kmh 29.95 in1014.2 mb - 0.00 in0.0 mm 0.00 in0.0 mm
11:40 AM 88.9°F31.6°C 70.6°F21.4°C 55% Calm Calm 2.3 mph3.7 kmh 29.95 in1014.2 mb - 0.00 in0.0 mm 0.00 in0.0 mm
11:50 AM 89.0°F31.7°C 67.9°F19.9°C 50% 1.2 mph N1.9 kmh N 4.6 mph7.4 kmh 29.95 in1014.2 mb - 0.00 in0.0 mm 0.00 in0.0 mm
12:00 PM 88.7°F31.5°C 69.9°F21.1°C 54% Calm Calm -- 29.95 in1014.2 mb - 0.00 in0.0 mm 0.00 in0.0 mm
12:10 PM 88.5°F31.4°C 70.8°F21.6°C 56% 1.2 mph NW1.9 kmh NW 2.3 mph3.7 kmh 29.94 in1013.9 mb - 0.00 in0.0 mm 0.00 in0.0 mm
12:20 PM 88.3°F31.3°C 67.9°F19.9°C 51% 1.2 mph NNE1.9 kmh NNE 4.6 mph7.4 kmh 29.94 in1013.9 mb - 0.00 in0.0 mm 0.00 in0.0 mm
12:30 PM 88.5°F31.4°C 68.1°F20.1°C 51% 1.2 mph NE1.9 kmh NE 2.3 mph3.7 kmh 29.93 in1013.5 mb - 0.00 in0.0 mm 0.00 in0.0 mm
12:40 PM 88.7°F31.5°C 68.2°F20.1°C 51% Calm Calm 2.3 mph3.7 kmh 29.93 in1013.5 mb - 0.00 in0.0 mm 0.00 in0.0 mm
12:50 PM 89.1°F31.7°C 62.3°F16.8°C 41% 3.5 mph NW5.6 kmh NW 10.4 mph16.7 kmh 29.93 in1013.5 mb - 0.00 in0.0 mm 0.00 in0.0 mm
01:00 PM 89.5°F31.9°C 68.9°F20.5°C 51% Calm Calm 2.3 mph3.7 kmh 29.93 in1013.5 mb - 0.00 in0.0 mm 0.00 in0.0 mm
01:10 PM 89.6°F32.0°C 69.1°F20.6°C 51% 2.3 mph N3.7 kmh N 4.6 mph7.4 kmh 29.92 in1013.2 mb - 0.00 in0.0 mm 0.00 in0.0 mm
01:20 PM 89.6°F32.0°C 68.5°F20.3°C 50% 2.3 mph NNW3.7 kmh NNW 4.6 mph7.4 kmh 29.92 in1013.2 mb - 0.00 in0.0 mm 0.00 in0.0 mm
01:30 PM 89.6°F32.0°C 69.6°F20.9°C 52% Calm Calm 2.3 mph3.7 kmh 29.92 in1013.2 mb - 0.00 in0.0 mm 0.00 in0.0 mm
01:40 PM 89.6°F32.0°C 70.8°F21.6°C 54% Calm Calm -- 29.92 in1013.2 mb - 0.00 in0.0 mm 0.00 in0.0 mm
01:50 PM 90.0°F32.2°C 70.6°F21.4°C 53% Calm Calm -- 29.91 in1012.9 mb - 0.00 in0.0 mm 0.00 in0.0 mm
02:00 PM 90.5°F32.5°C 70.5°F21.4°C 52% 1.2 mph NNE1.9 kmh NNE 2.3 mph3.7 kmh 29.91 in1012.9 mb - 0.00 in0.0 mm 0.00 in0.0 mm
02:10 PM 90.7°F32.6°C 71.2°F21.8°C 53% Calm Calm -- 29.91 in1012.9 mb - 0.00 in0.0 mm 0.00 in0.0 mm
02:20 PM 90.9°F32.7°C 70.8°F21.6°C 52% 1.2 mph NNW1.9 kmh NNW 2.3 mph3.7 kmh 29.91 in1012.9 mb - 0.00 in0.0 mm 0.00 in0.0 mm
02:30 PM 89.8°F32.1°C 72.5°F22.5°C 57% Calm Calm -- 29.91 in1012.9 mb - 0.00 in0.0 mm 0.00 in0.0 mm
02:40 PM 89.6°F32.0°C 71.8°F22.1°C 56% Calm Calm 2.3 mph3.7 kmh 29.90 in1012.5 mb - 0.00 in0.0 mm 0.00 in0.0 mm
02:50 PM 89.1°F31.7°C 68.0°F20.0°C 50% Calm Calm -- 29.90 in1012.5 mb - 0.00 in0.0 mm 0.00 in0.0 mm
03:00 PM 89.2°F31.8°C 70.9°F21.6°C 55% Calm Calm 2.3 mph3.7 kmh 29.90 in1012.5 mb - 0.00 in0.0 mm 0.00 in0.0 mm
03:10 PM 89.8°F32.1°C 69.3°F20.7°C 51% Calm Calm -- 29.90 in1012.5 mb - 0.00 in0.0 mm 0.00 in0.0 mm
03:20 PM 90.3°F32.4°C 69.1°F20.6°C 50% Calm Calm -- 29.90 in1012.5 mb - 0.00 in0.0 mm 0.00 in0.0 mm
03:30 PM 90.5°F32.5°C 68.7°F20.4°C 49% Calm Calm -- 29.90 in1012.5 mb - 0.00 in0.0 mm 0.00 in0.0 mm
03:40 PM 90.7°F32.6°C 65.8°F18.8°C 44% Calm Calm 2.3 mph3.7 kmh 29.90 in1012.5 mb - 0.00 in0.0 mm 0.00 in0.0 mm
03:50 PM 91.7°F33.2°C 60.2°F15.7°C 35% 4.6 mph SSE7.4 kmh SSE 10.4 mph16.7 kmh 29.89 in1012.2 mb - 0.00 in0.0 mm 0.00 in0.0 mm
04:00 PM 93.6°F34.2°C 61.0°F16.1°C 34% 2.3 mph SE3.7 kmh SE 4.6 mph7.4 kmh 29.89 in1012.2 mb - 0.00 in0.0 mm 0.00 in0.0 mm
04:10 PM 95.2°F35.1°C 63.2°F17.3°C 35% 8.1 mph SSE13.0 kmh SSE 15.0 mph24.1 kmh 29.89 in1012.2 mb - 0.00 in0.0 mm 0.00 in0.0 mm
04:20 PM 95.7°F35.4°C 63.7°F17.6°C 35% 8.1 mph SE13.0 kmh SE 12.7 mph20.4 kmh 29.89 in1012.2 mb - 0.00 in0.0 mm 0.00 in0.0 mm
04:30 PM 95.4°F35.2°C 65.0°F18.3°C 37% 9.2 mph S14.8 kmh S 15.0 mph24.1 kmh 29.88 in1011.9 mb - 0.00 in0.0 mm 0.00 in0.0 mm
04:40 PM 94.6°F34.8°C 63.5°F17.5°C 36% 6.9 mph SSE11.1 kmh SSE 12.7 mph20.4 kmh 29.89 in1012.2 mb - 0.00 in0.0 mm 0.00 in0.0 mm
04:50 PM 94.3°F34.6°C 62.4°F16.9°C 35% 8.1 mph S13.0 kmh S 10.4 mph16.7 kmh 29.89 in1012.2 mb - 0.00 in0.0 mm 0.00 in0.0 mm
05:00 PM 94.3°F34.6°C 64.0°F17.8°C 37% 8.1 mph S13.0 kmh S 15.0 mph24.1 kmh 29.88 in1011.9 mb - 0.00 in0.0 mm 0.00 in0.0 mm
05:10 PM 93.9°F34.4°C 64.4°F18.0°C 38% 3.5 mph S5.6 kmh S 8.1 mph13.0 kmh 29.88 in1011.9 mb - 0.00 in0.0 mm 0.00 in0.0 mm
05:20 PM 93.7°F34.3°C 64.3°F17.9°C 38% 5.8 mph SSE9.3 kmh SSE 10.4 mph16.7 kmh 29.88 in1011.9 mb - 0.00 in0.0 mm 0.00 in0.0 mm
05:30 PM 93.5°F34.2°C 63.4°F17.4°C 37% 8.1 mph S13.0 kmh S 10.4 mph16.7 kmh 29.88 in1011.9 mb - 0.00 in0.0 mm 0.00 in0.0 mm
05:40 PM 93.4°F34.1°C 63.2°F17.3°C 37% 5.8 mph SSE9.3 kmh SSE 8.1 mph13.0 kmh 29.89 in1012.2 mb - 0.00 in0.0 mm 0.00 in0.0 mm
05:50 PM 93.0°F33.9°C 63.6°F17.6°C 38% 1.2 mph SSE1.9 kmh SSE 4.6 mph7.4 kmh 29.89 in1012.2 mb - 0.00 in0.0 mm 0.00 in0.0 mm
06:00 PM 92.8°F33.8°C 64.9°F18.3°C 40% 1.2 mph ESE1.9 kmh ESE 2.3 mph3.7 kmh 29.89 in1012.2 mb - 0.00 in0.0 mm 0.00 in0.0 mm
06:10 PM 92.7°F33.7°C 63.4°F17.4°C 38% 4.6 mph S7.4 kmh S 8.1 mph13.0 kmh 29.89 in1012.2 mb - 0.00 in0.0 mm 0.00 in0.0 mm
06:20 PM 92.4°F33.6°C 63.9°F17.7°C 39% 6.9 mph SE11.1 kmh SE 10.4 mph16.7 kmh 29.89 in1012.2 mb - 0.00 in0.0 mm 0.00 in0.0 mm
06:30 PM 92.1°F33.4°C 65.0°F18.3°C 41% 4.6 mph S7.4 kmh S 8.1 mph13.0 kmh 29.88 in1011.9 mb - 0.00 in0.0 mm 0.00 in0.0 mm
06:40 PM 91.6°F33.1°C 65.3°F18.5°C 42% 3.5 mph SW5.6 kmh SW 4.6 mph7.4 kmh 29.88 in1011.9 mb - 0.00 in0.0 mm 0.00 in0.0 mm
06:50 PM 90.9°F32.7°C 66.0°F18.9°C 44% 3.5 mph S5.6 kmh S 8.1 mph13.0 kmh 29.88 in1011.9 mb - 0.00 in0.0 mm 0.00 in0.0 mm
07:00 PM 90.0°F32.2°C 65.8°F18.8°C 45% 3.5 mph SE5.6 kmh SE 8.1 mph13.0 kmh 29.88 in1011.9 mb - 0.00 in0.0 mm 0.00 in0.0 mm
07:10 PM 89.1°F31.7°C 64.4°F18.0°C 44% 4.6 mph SE7.4 kmh SE 8.1 mph13.0 kmh 29.88 in1011.9 mb - 0.00 in0.0 mm 0.00 in0.0 mm
07:20 PM 88.7°F31.5°C 64.0°F17.8°C 44% 8.1 mph SSE13.0 kmh SSE 12.7 mph20.4 kmh 29.88 in1011.9 mb - 0.00 in0.0 mm 0.00 in0.0 mm
07:30 PM 88.3°F31.3°C 63.6°F17.6°C 44% 5.8 mph SSE9.3 kmh SSE 10.4 mph16.7 kmh 29.88 in1011.9 mb - 0.00 in0.0 mm 0.00 in0.0 mm
07:40 PM 87.9°F31.1°C 63.9°F17.7°C 45% 6.9 mph SE11.1 kmh SE 8.1 mph13.0 kmh 29.88 in1011.9 mb - 0.00 in0.0 mm 0.00 in0.0 mm
07:50 PM 87.4°F30.8°C 64.7°F18.2°C 47% 6.9 mph SE11.1 kmh SE 10.4 mph16.7 kmh 29.88 in1011.9 mb - 0.00 in0.0 mm 0.00 in0.0 mm
08:00 PM 87.0°F30.6°C 64.3°F17.9°C 47% 3.5 mph SSE5.6 kmh SSE 4.6 mph7.4 kmh 29.88 in1011.9 mb - 0.00 in0.0 mm 0.00 in0.0 mm
08:10 PM 86.7°F30.4°C 64.1°F17.8°C 47% 3.5 mph S5.6 kmh S 8.1 mph13.0 kmh 29.88 in1011.9 mb - 0.00 in0.0 mm 0.00 in0.0 mm
08:20 PM 86.5°F30.3°C 63.3°F17.4°C 46% 5.8 mph SE9.3 kmh SE 12.7 mph20.4 kmh 29.88 in1011.9 mb - 0.00 in0.0 mm 0.00 in0.0 mm
08:30 PM 86.4°F30.2°C 63.8°F17.7°C 47% 5.8 mph SE9.3 kmh SE 8.1 mph13.0 kmh 29.88 in1011.9 mb - 0.00 in0.0 mm 0.00 in0.0 mm
08:40 PM 86.2°F30.1°C 64.2°F17.9°C 48% 5.8 mph SE9.3 kmh SE 10.4 mph16.7 kmh 29.88 in1011.9 mb - 0.00 in0.0 mm 0.00 in0.0 mm
08:50 PM 86.0°F30.0°C 64.0°F17.8°C 48% 2.3 mph SSE3.7 kmh SSE 4.6 mph7.4 kmh 29.88 in1011.9 mb - 0.00 in0.0 mm 0.00 in0.0 mm
09:00 PM 85.6°F29.8°C 64.2°F17.9°C 49% Calm Calm -- 29.89 in1012.2 mb - 0.00 in0.0 mm 0.00 in0.0 mm
09:10 PM 85.5°F29.7°C 64.2°F17.9°C 49% 1.2 mph SE1.9 kmh SE 2.3 mph3.7 kmh 29.88 in1011.9 mb - 0.00 in0.0 mm 0.00 in0.0 mm
09:20 PM 85.3°F29.6°C 64.0°F17.8°C 49% 2.3 mph S3.7 kmh S 4.6 mph7.4 kmh 29.88 in1011.9 mb - 0.00 in0.0 mm 0.00 in0.0 mm
09:30 PM 84.9°F29.4°C 64.2°F17.9°C 50% 2.3 mph SE3.7 kmh SE 4.6 mph7.4 kmh 29.89 in1012.2 mb - 0.00 in0.0 mm 0.00 in0.0 mm
09:40 PM 84.7°F29.3°C 64.6°F18.1°C 51% 4.6 mph SSE7.4 kmh SSE 8.1 mph13.0 kmh 29.89 in1012.2 mb - 0.00 in0.0 mm 0.00 in0.0 mm
09:50 PM 84.6°F29.2°C 64.5°F18.1°C 51% 2.3 mph SE3.7 kmh SE 4.6 mph7.4 kmh 29.89 in1012.2 mb - 0.00 in0.0 mm 0.00 in0.0 mm
10:00 PM 84.6°F29.2°C 65.0°F18.3°C 52% 3.5 mph SE5.6 kmh SE 4.6 mph7.4 kmh 29.89 in1012.2 mb - 0.00 in0.0 mm 0.00 in0.0 mm
10:10 PM 84.4°F29.1°C 64.9°F18.3°C 52% 4.6 mph SSE7.4 kmh SSE 8.1 mph13.0 kmh 29.89 in1012.2 mb - 0.00 in0.0 mm 0.00 in0.0 mm
10:20 PM 84.1°F28.9°C 65.1°F18.4°C 53% 4.6 mph SE7.4 kmh SE 8.1 mph13.0 kmh 29.89 in1012.2 mb - 0.00 in0.0 mm 0.00 in0.0 mm
10:30 PM 83.8°F28.8°C 65.4°F18.6°C 54% 4.6 mph S7.4 kmh S 10.4 mph16.7 kmh 29.89 in1012.2 mb - 0.00 in0.0 mm 0.00 in0.0 mm
10:40 PM 83.5°F28.6°C 66.2°F19.0°C 56% 4.6 mph SSE7.4 kmh SSE 8.1 mph13.0 kmh 29.89 in1012.2 mb - 0.00 in0.0 mm 0.00 in0.0 mm
10:50 PM 83.1°F28.4°C 65.8°F18.8°C 56% 2.3 mph SE3.7 kmh SE 4.6 mph7.4 kmh 29.89 in1012.2 mb - 0.00 in0.0 mm 0.00 in0.0 mm
11:00 PM 82.8°F28.2°C 66.0°F18.9°C 57% 3.5 mph SE5.6 kmh SE 4.6 mph7.4 kmh 29.89 in1012.2 mb - 0.00 in0.0 mm 0.00 in0.0 mm
11:10 PM 82.6°F28.1°C 65.8°F18.8°C 57% 2.3 mph SSE3.7 kmh SSE 4.6 mph7.4 kmh 29.89 in1012.2 mb - 0.00 in0.0 mm 0.00 in0.0 mm
11:20 PM 82.4°F28.0°C 64.6°F18.1°C 55% Calm Calm 2.3 mph3.7 kmh 29.89 in1012.2 mb - 0.00 in0.0 mm 0.00 in0.0 mm
11:30 PM 82.4°F28.0°C 65.1°F18.4°C 56% 3.5 mph SE5.6 kmh SE 4.6 mph7.4 kmh 29.89 in1012.2 mb - 0.00 in0.0 mm 0.00 in0.0 mm
11:40 PM 82.4°F28.0°C 64.6°F18.1°C 55% 3.5 mph SE5.6 kmh SE 4.6 mph7.4 kmh 29.88 in1011.9 mb - 0.00 in0.0 mm 0.00 in0.0 mm
11:50 PM 82.4°F28.0°C 64.1°F17.8°C 54% 2.3 mph SE3.7 kmh SE 4.6 mph7.4 kmh 29.89 in1012.2 mb - 0.00 in0.0 mm 0.00 in0.0 mm